sensor_id;sensor_type;location;lat;lon;timestamp;P1;durP1;ratioP1;P2;durP2;ratioP2
63038;SDS011;49125;48.812;9.206;2022-09-25T00:01:00;32.63;;;25.77;;
63038;SDS011;49125;48.812;9.206;2022-09-25T00:03:27;29.60;;;25.20;;
63038;SDS011;49125;48.812;9.206;2022-09-25T00:05:59;56.70;;;31.90;;
63038;SDS011;49125;48.812;9.206;2022-09-25T00:08:26;31.47;;;26.33;;
63038;SDS011;49125;48.812;9.206;2022-09-25T00:10:52;54.93;;;31.03;;
63038;SDS011;49125;48.812;9.206;2022-09-25T00:13:19;46.33;;;31.40;;
63038;SDS011;49125;48.812;9.206;2022-09-25T00:15:53;47.03;;;31.43;;
63038;SDS011;49125;48.812;9.206;2022-09-25T00:18:20;48.40;;;32.13;;
63038;SDS011;49125;48.812;9.206;2022-09-25T00:21:06;38.50;;;28.27;;
63038;SDS011;49125;48.812;9.206;2022-09-25T00:23:33;32.77;;;25.67;;
63038;SDS011;49125;48.812;9.206;2022-09-25T00:26:00;40.53;;;29.07;;
63038;SDS011;49125;48.812;9.206;2022-09-25T00:28:26;33.80;;;27.80;;
63038;SDS011;49125;48.812;9.206;2022-09-25T00:30:54;29.93;;;25.30;;
63038;SDS011;49125;48.812;9.206;2022-09-25T00:33:20;35.30;;;26.10;;
63038;SDS011;49125;48.812;9.206;2022-09-25T00:35:45;27.97;;;24.33;;
63038;SDS011;49125;48.812;9.206;2022-09-25T00:38:11;66.70;;;34.33;;
63038;SDS011;49125;48.812;9.206;2022-09-25T00:40:36;30.77;;;25.10;;
63038;SDS011;49125;48.812;9.206;2022-09-25T00:43:02;57.03;;;32.90;;
63038;SDS011;49125;48.812;9.206;2022-09-25T00:45:27;43.20;;;28.93;;
63038;SDS011;49125;48.812;9.206;2022-09-25T00:47:57;38.30;;;26.93;;
63038;SDS011;49125;48.812;9.206;2022-09-25T00:53:25;35.73;;;26.77;;
63038;SDS011;49125;48.812;9.206;2022-09-25T00:55:54;57.17;;;31.53;;
63038;SDS011;49125;48.812;9.206;2022-09-25T00:58:23;65.50;;;32.93;;
63038;SDS011;49125;48.812;9.206;2022-09-25T01:00:51;64.23;;;34.67;;
63038;SDS011;49125;48.812;9.206;2022-09-25T01:03:18;38.90;;;27.80;;
63038;SDS011;49125;48.812;9.206;2022-09-25T01:05:44;39.27;;;27.37;;
63038;SDS011;49125;48.812;9.206;2022-09-25T01:08:17;48.33;;;30.80;;
63038;SDS011;49125;48.812;9.206;2022-09-25T01:10:46;37.33;;;27.27;;
63038;SDS011;49125;48.812;9.206;2022-09-25T01:13:11;25.77;;;23.10;;
63038;SDS011;49125;48.812;9.206;2022-09-25T01:15:48;27.67;;;24.27;;
63038;SDS011;49125;48.812;9.206;2022-09-25T01:30:12;35.63;;;25.93;;
63038;SDS011;49125;48.812;9.206;2022-09-25T01:33:00;27.77;;;23.47;;
63038;SDS011;49125;48.812;9.206;2022-09-25T01:35:57;45.77;;;26.23;;
63038;SDS011;49125;48.812;9.206;2022-09-25T01:41:03;38.42;;;24.77;;
63038;SDS011;49125;48.812;9.206;2022-09-25T01:43:51;25.03;;;21.53;;
63038;SDS011;49125;48.812;9.206;2022-09-25T01:46:28;29.53;;;22.20;;
63038;SDS011;49125;48.812;9.206;2022-09-25T01:48:58;26.40;;;22.55;;
63038;SDS011;49125;48.812;9.206;2022-09-25T01:51:35;28.70;;;23.23;;
63038;SDS011;49125;48.812;9.206;2022-09-25T01:54:13;26.83;;;21.53;;
63038;SDS011;49125;48.812;9.206;2022-09-25T01:56:45;26.83;;;20.83;;
63038;SDS011;49125;48.812;9.206;2022-09-25T02:02:18;22.67;;;20.13;;
63038;SDS011;49125;48.812;9.206;2022-09-25T02:04:53;24.97;;;20.33;;
63038;SDS011;49125;48.812;9.206;2022-09-25T02:07:25;23.57;;;19.87;;
63038;SDS011;49125;48.812;9.206;2022-09-25T02:09:55;21.30;;;18.70;;
63038;SDS011;49125;48.812;9.206;2022-09-25T02:12:30;23.00;;;19.70;;
63038;SDS011;49125;48.812;9.206;2022-09-25T02:15:02;24.40;;;19.40;;
63038;SDS011;49125;48.812;9.206;2022-09-25T02:17:37;20.77;;;18.47;;
63038;SDS011;49125;48.812;9.206;2022-09-25T02:20:30;20.17;;;18.03;;
63038;SDS011;49125;48.812;9.206;2022-09-25T02:23:04;30.83;;;21.30;;
63038;SDS011;49125;48.812;9.206;2022-09-25T02:25:37;19.83;;;17.73;;
63038;SDS011;49125;48.812;9.206;2022-09-25T02:28:08;20.77;;;18.57;;
63038;SDS011;49125;48.812;9.206;2022-09-25T02:30:34;21.87;;;19.57;;
63038;SDS011;49125;48.812;9.206;2022-09-25T02:33:00;24.67;;;20.10;;
63038;SDS011;49125;48.812;9.206;2022-09-25T02:35:25;33.03;;;27.27;;
63038;SDS011;49125;48.812;9.206;2022-09-25T02:37:52;30.37;;;26.20;;
63038;SDS011;49125;48.812;9.206;2022-09-25T02:40:21;30.20;;;26.90;;
63038;SDS011;49125;48.812;9.206;2022-09-25T02:43:38;34.23;;;28.57;;
63038;SDS011;49125;48.812;9.206;2022-09-25T02:51:54;32.93;;;29.13;;
63038;SDS011;49125;48.812;9.206;2022-09-25T02:54:30;33.93;;;29.07;;
63038;SDS011;49125;48.812;9.206;2022-09-25T02:57:07;44.20;;;31.77;;
63038;SDS011;49125;48.812;9.206;2022-09-25T02:59:45;37.93;;;29.83;;
63038;SDS011;49125;48.812;9.206;2022-09-25T03:02:16;42.87;;;31.23;;
63038;SDS011;49125;48.812;9.206;2022-09-25T03:04:43;31.97;;;26.23;;
63038;SDS011;49125;48.812;9.206;2022-09-25T03:07:12;30.60;;;27.30;;
63038;SDS011;49125;48.812;9.206;2022-09-25T03:09:38;31.07;;;27.37;;
63038;SDS011;49125;48.812;9.206;2022-09-25T03:12:05;31.03;;;25.80;;
63038;SDS011;49125;48.812;9.206;2022-09-25T03:14:31;33.73;;;28.07;;
63038;SDS011;49125;48.812;9.206;2022-09-25T03:16:58;32.27;;;27.40;;
63038;SDS011;49125;48.812;9.206;2022-09-25T03:19:27;38.90;;;29.23;;
63038;SDS011;49125;48.812;9.206;2022-09-25T03:21:53;31.03;;;27.60;;
63038;SDS011;49125;48.812;9.206;2022-09-25T03:24:19;29.77;;;26.50;;
63038;SDS011;49125;48.812;9.206;2022-09-25T03:26:45;32.60;;;25.97;;
63038;SDS011;49125;48.812;9.206;2022-09-25T03:29:11;29.17;;;25.87;;
63038;SDS011;49125;48.812;9.206;2022-09-25T03:31:38;32.20;;;26.70;;
63038;SDS011;49125;48.812;9.206;2022-09-25T03:34:06;29.00;;;24.17;;
63038;SDS011;49125;48.812;9.206;2022-09-25T03:36:32;28.70;;;25.60;;
63038;SDS011;49125;48.812;9.206;2022-09-25T03:39:00;26.40;;;23.53;;
63038;SDS011;49125;48.812;9.206;2022-09-25T03:41:27;28.87;;;24.50;;
63038;SDS011;49125;48.812;9.206;2022-09-25T03:43:54;31.40;;;26.10;;
63038;SDS011;49125;48.812;9.206;2022-09-25T03:46:22;26.90;;;23.73;;
63038;SDS011;49125;48.812;9.206;2022-09-25T03:48:52;27.50;;;24.60;;
63038;SDS011;49125;48.812;9.206;2022-09-25T03:51:18;29.63;;;24.93;;
63038;SDS011;49125;48.812;9.206;2022-09-25T03:53:44;33.23;;;26.50;;
63038;SDS011;49125;48.812;9.206;2022-09-25T03:56:12;28.37;;;24.67;;
63038;SDS011;49125;48.812;9.206;2022-09-25T03:58:41;28.57;;;25.53;;
63038;SDS011;49125;48.812;9.206;2022-09-25T04:01:07;32.80;;;27.03;;
63038;SDS011;49125;48.812;9.206;2022-09-25T04:03:34;30.57;;;25.43;;
63038;SDS011;49125;48.812;9.206;2022-09-25T04:06:01;34.33;;;26.10;;
63038;SDS011;49125;48.812;9.206;2022-09-25T04:08:29;33.83;;;27.43;;
63038;SDS011;49125;48.812;9.206;2022-09-25T04:10:56;35.40;;;26.47;;
63038;SDS011;49125;48.812;9.206;2022-09-25T04:13:26;35.63;;;27.00;;
63038;SDS011;49125;48.812;9.206;2022-09-25T04:15:54;36.53;;;28.17;;
63038;SDS011;49125;48.812;9.206;2022-09-25T04:18:20;33.27;;;25.77;;
63038;SDS011;49125;48.812;9.206;2022-09-25T04:20:46;32.27;;;26.27;;
63038;SDS011;49125;48.812;9.206;2022-09-25T04:23:12;39.77;;;26.47;;
63038;SDS011;49125;48.812;9.206;2022-09-25T04:25:37;37.63;;;28.03;;
63038;SDS011;49125;48.812;9.206;2022-09-25T04:28:03;30.83;;;24.73;;
63038;SDS011;49125;48.812;9.206;2022-09-25T04:30:31;34.13;;;25.17;;
63038;SDS011;49125;48.812;9.206;2022-09-25T04:32:57;31.23;;;25.53;;
63038;SDS011;49125;48.812;9.206;2022-09-25T04:35:41;27.50;;;22.40;;
63038;SDS011;49125;48.812;9.206;2022-09-25T04:38:07;36.17;;;26.20;;
63038;SDS011;49125;48.812;9.206;2022-09-25T04:40:34;36.43;;;26.00;;
63038;SDS011;49125;48.812;9.206;2022-09-25T04:43:03;31.07;;;23.57;;
63038;SDS011;49125;48.812;9.206;2022-09-25T04:45:32;34.60;;;25.27;;
63038;SDS011;49125;48.812;9.206;2022-09-25T04:47:59;35.80;;;23.57;;
63038;SDS011;49125;48.812;9.206;2022-09-25T04:50:25;32.97;;;23.57;;
63038;SDS011;49125;48.812;9.206;2022-09-25T04:52:52;33.03;;;23.83;;
63038;SDS011;49125;48.812;9.206;2022-09-25T04:55:18;30.93;;;23.03;;
63038;SDS011;49125;48.812;9.206;2022-09-25T04:57:49;34.17;;;23.87;;
63038;SDS011;49125;48.812;9.206;2022-09-25T05:00:16;39.27;;;26.10;;
63038;SDS011;49125;48.812;9.206;2022-09-25T05:02:43;33.27;;;23.33;;
63038;SDS011;49125;48.812;9.206;2022-09-25T05:05:10;35.17;;;25.00;;
63038;SDS011;49125;48.812;9.206;2022-09-25T05:07:35;38.93;;;26.03;;
63038;SDS011;49125;48.812;9.206;2022-09-25T05:10:02;41.40;;;25.67;;
63038;SDS011;49125;48.812;9.206;2022-09-25T05:12:28;38.03;;;25.67;;
63038;SDS011;49125;48.812;9.206;2022-09-25T05:14:53;41.37;;;23.97;;
63038;SDS011;49125;48.812;9.206;2022-09-25T05:17:19;37.33;;;24.73;;
63038;SDS011;49125;48.812;9.206;2022-09-25T05:19:45;37.77;;;24.30;;
63038;SDS011;49125;48.812;9.206;2022-09-25T05:22:10;33.20;;;22.73;;
63038;SDS011;49125;48.812;9.206;2022-09-25T05:24:36;31.97;;;22.80;;
63038;SDS011;49125;48.812;9.206;2022-09-25T05:27:02;31.77;;;23.03;;
63038;SDS011;49125;48.812;9.206;2022-09-25T05:29:28;34.90;;;23.23;;
63038;SDS011;49125;48.812;9.206;2022-09-25T05:31:53;30.37;;;21.00;;
63038;SDS011;49125;48.812;9.206;2022-09-25T05:34:20;25.23;;;19.30;;
63038;SDS011;49125;48.812;9.206;2022-09-25T05:36:45;24.30;;;18.67;;
63038;SDS011;49125;48.812;9.206;2022-09-25T05:39:11;22.27;;;17.47;;
63038;SDS011;49125;48.812;9.206;2022-09-25T05:41:36;24.00;;;18.50;;
63038;SDS011;49125;48.812;9.206;2022-09-25T05:44:02;21.07;;;17.00;;
63038;SDS011;49125;48.812;9.206;2022-09-25T05:46:31;26.80;;;19.57;;
63038;SDS011;49125;48.812;9.206;2022-09-25T05:48:58;24.80;;;18.40;;
63038;SDS011;49125;48.812;9.206;2022-09-25T05:51:24;22.37;;;17.80;;
63038;SDS011;49125;48.812;9.206;2022-09-25T05:53:51;26.87;;;18.67;;
63038;SDS011;49125;48.812;9.206;2022-09-25T05:56:18;22.57;;;16.83;;
63038;SDS011;49125;48.812;9.206;2022-09-25T05:58:43;19.27;;;15.50;;
63038;SDS011;49125;48.812;9.206;2022-09-25T06:01:09;20.40;;;15.73;;
63038;SDS011;49125;48.812;9.206;2022-09-25T06:03:35;20.90;;;15.67;;
63038;SDS011;49125;48.812;9.206;2022-09-25T06:06:00;22.47;;;16.40;;
63038;SDS011;49125;48.812;9.206;2022-09-25T06:08:27;20.67;;;15.57;;
63038;SDS011;49125;48.812;9.206;2022-09-25T06:10:55;16.33;;;14.63;;
63038;SDS011;49125;48.812;9.206;2022-09-25T06:13:21;17.43;;;14.87;;
63038;SDS011;49125;48.812;9.206;2022-09-25T06:15:49;16.80;;;14.13;;
63038;SDS011;49125;48.812;9.206;2022-09-25T06:18:16;17.27;;;14.57;;
63038;SDS011;49125;48.812;9.206;2022-09-25T06:20:44;17.23;;;14.37;;
63038;SDS011;49125;48.812;9.206;2022-09-25T06:23:10;16.57;;;14.77;;
63038;SDS011;49125;48.812;9.206;2022-09-25T06:25:35;18.93;;;15.57;;
63038;SDS011;49125;48.812;9.206;2022-09-25T06:28:01;19.37;;;15.50;;
63038;SDS011;49125;48.812;9.206;2022-09-25T06:30:28;19.17;;;15.87;;
63038;SDS011;49125;48.812;9.206;2022-09-25T06:33:02;20.27;;;15.67;;
63038;SDS011;49125;48.812;9.206;2022-09-25T06:35:33;17.30;;;15.17;;
63038;SDS011;49125;48.812;9.206;2022-09-25T06:38:01;16.13;;;14.43;;
63038;SDS011;49125;48.812;9.206;2022-09-25T06:40:28;20.00;;;16.20;;
63038;SDS011;49125;48.812;9.206;2022-09-25T06:42:58;16.73;;;14.77;;
63038;SDS011;49125;48.812;9.206;2022-09-25T06:45:26;18.93;;;14.47;;
63038;SDS011;49125;48.812;9.206;2022-09-25T06:47:53;17.20;;;15.50;;
63038;SDS011;49125;48.812;9.206;2022-09-25T06:50:25;16.53;;;14.87;;
63038;SDS011;49125;48.812;9.206;2022-09-25T06:52:59;15.87;;;14.27;;
63038;SDS011;49125;48.812;9.206;2022-09-25T06:55:25;15.73;;;13.77;;
63038;SDS011;49125;48.812;9.206;2022-09-25T06:57:53;18.65;;;14.43;;
63038;SDS011;49125;48.812;9.206;2022-09-25T07:00:18;15.77;;;13.70;;
63038;SDS011;49125;48.812;9.206;2022-09-25T07:02:44;16.05;;;14.45;;
63038;SDS011;49125;48.812;9.206;2022-09-25T07:05:28;14.55;;;13.02;;
63038;SDS011;49125;48.812;9.206;2022-09-25T07:07:54;14.50;;;12.95;;
63038;SDS011;49125;48.812;9.206;2022-09-25T07:10:19;15.40;;;13.90;;
63038;SDS011;49125;48.812;9.206;2022-09-25T07:12:45;14.13;;;12.63;;
63038;SDS011;49125;48.812;9.206;2022-09-25T07:15:11;13.75;;;12.18;;
63038;SDS011;49125;48.812;9.206;2022-09-25T07:17:41;13.63;;;12.23;;
63038;SDS011;49125;48.812;9.206;2022-09-25T07:20:07;13.60;;;12.20;;
63038;SDS011;49125;48.812;9.206;2022-09-25T07:22:36;14.82;;;13.35;;
63038;SDS011;49125;48.812;9.206;2022-09-25T07:25:02;13.70;;;12.30;;
63038;SDS011;49125;48.812;9.206;2022-09-25T07:27:28;13.57;;;12.23;;
63038;SDS011;49125;48.812;9.206;2022-09-25T07:29:54;13.23;;;12.02;;
63038;SDS011;49125;48.812;9.206;2022-09-25T07:32:20;15.48;;;13.13;;
63038;SDS011;49125;48.812;9.206;2022-09-25T07:34:46;13.90;;;12.50;;
63038;SDS011;49125;48.812;9.206;2022-09-25T07:37:14;12.73;;;11.50;;
63038;SDS011;49125;48.812;9.206;2022-09-25T07:39:39;13.68;;;12.27;;
63038;SDS011;49125;48.812;9.206;2022-09-25T07:42:05;13.63;;;12.23;;
63038;SDS011;49125;48.812;9.206;2022-09-25T07:44:31;13.02;;;11.73;;
63038;SDS011;49125;48.812;9.206;2022-09-25T07:46:56;13.27;;;11.97;;
63038;SDS011;49125;48.812;9.206;2022-09-25T07:49:23;13.27;;;11.88;;
63038;SDS011;49125;48.812;9.206;2022-09-25T07:51:48;12.75;;;11.23;;
63038;SDS011;49125;48.812;9.206;2022-09-25T07:54:14;13.30;;;12.00;;
63038;SDS011;49125;48.812;9.206;2022-09-25T07:56:39;12.48;;;10.68;;
63038;SDS011;49125;48.812;9.206;2022-09-25T07:59:05;13.43;;;12.02;;
63038;SDS011;49125;48.812;9.206;2022-09-25T08:01:30;13.65;;;12.38;;
63038;SDS011;49125;48.812;9.206;2022-09-25T08:03:56;15.35;;;13.60;;
63038;SDS011;49125;48.812;9.206;2022-09-25T08:06:21;14.57;;;13.18;;
63038;SDS011;49125;48.812;9.206;2022-09-25T08:08:47;14.20;;;12.70;;
63038;SDS011;49125;48.812;9.206;2022-09-25T08:11:14;14.43;;;13.02;;
63038;SDS011;49125;48.812;9.206;2022-09-25T08:13:41;14.10;;;12.70;;
63038;SDS011;49125;48.812;9.206;2022-09-25T08:16:08;14.80;;;13.38;;
63038;SDS011;49125;48.812;9.206;2022-09-25T08:18:45;15.50;;;13.50;;
63038;SDS011;49125;48.812;9.206;2022-09-25T08:21:11;14.95;;;13.57;;
63038;SDS011;49125;48.812;9.206;2022-09-25T08:23:38;15.68;;;14.10;;
63038;SDS011;49125;48.812;9.206;2022-09-25T08:26:05;15.43;;;13.93;;
63038;SDS011;49125;48.812;9.206;2022-09-25T08:28:31;14.90;;;13.52;;
63038;SDS011;49125;48.812;9.206;2022-09-25T08:30:59;15.00;;;13.45;;
63038;SDS011;49125;48.812;9.206;2022-09-25T08:33:28;15.40;;;14.00;;
63038;SDS011;49125;48.812;9.206;2022-09-25T08:35:59;16.75;;;15.10;;
63038;SDS011;49125;48.812;9.206;2022-09-25T08:38:26;18.15;;;15.20;;
63038;SDS011;49125;48.812;9.206;2022-09-25T08:43:30;16.13;;;14.43;;
63038;SDS011;49125;48.812;9.206;2022-09-25T08:45:59;15.18;;;13.68;;
63038;SDS011;49125;48.812;9.206;2022-09-25T08:48:55;16.10;;;14.50;;
63038;SDS011;49125;48.812;9.206;2022-09-25T08:51:34;16.95;;;15.23;;
63038;SDS011;49125;48.812;9.206;2022-09-25T08:54:02;16.35;;;14.75;;
63038;SDS011;49125;48.812;9.206;2022-09-25T08:56:29;16.30;;;14.80;;
63038;SDS011;49125;48.812;9.206;2022-09-25T08:59:10;14.32;;;12.93;;
63038;SDS011;49125;48.812;9.206;2022-09-25T09:02:01;15.75;;;14.25;;
63038;SDS011;49125;48.812;9.206;2022-09-25T09:04:40;15.35;;;13.85;;
63038;SDS011;49125;48.812;9.206;2022-09-25T09:07:10;12.48;;;11.38;;
63038;SDS011;49125;48.812;9.206;2022-09-25T09:10:03;13.07;;;11.88;;
63038;SDS011;49125;48.812;9.206;2022-09-25T09:12:41;12.20;;;11.07;;
63038;SDS011;49125;48.812;9.206;2022-09-25T09:15:56;10.98;;;9.90;;
63038;SDS011;49125;48.812;9.206;2022-09-25T09:23:32;11.43;;;10.43;;
63038;SDS011;49125;48.812;9.206;2022-09-25T09:26:04;10.60;;;9.57;;
63038;SDS011;49125;48.812;9.206;2022-09-25T09:31:28;10.75;;;9.75;;
63038;SDS011;49125;48.812;9.206;2022-09-25T09:36:32;11.52;;;8.90;;
63038;SDS011;49125;48.812;9.206;2022-09-25T09:39:04;9.30;;;8.50;;
63038;SDS011;49125;48.812;9.206;2022-09-25T09:44:28;10.15;;;8.00;;
63038;SDS011;49125;48.812;9.206;2022-09-25T09:52:29;10.52;;;9.63;;
63038;SDS011;49125;48.812;9.206;2022-09-25T09:55:01;10.57;;;9.68;;
63038;SDS011;49125;48.812;9.206;2022-09-25T09:57:31;12.32;;;9.30;;
63038;SDS011;49125;48.812;9.206;2022-09-25T10:02:36;9.20;;;8.40;;
63038;SDS011;49125;48.812;9.206;2022-09-25T10:05:04;9.93;;;8.80;;
63038;SDS011;49125;48.812;9.206;2022-09-25T10:07:42;10.07;;;9.05;;
63038;SDS011;49125;48.812;9.206;2022-09-25T10:10:10;11.80;;;9.18;;
63038;SDS011;49125;48.812;9.206;2022-09-25T10:12:38;13.45;;;9.90;;
63038;SDS011;49125;48.812;9.206;2022-09-25T10:17:59;10.60;;;9.52;;
63038;SDS011;49125;48.812;9.206;2022-09-25T10:20:29;11.13;;;9.80;;
63038;SDS011;49125;48.812;9.206;2022-09-25T10:23:15;12.38;;;9.98;;
63038;SDS011;49125;48.812;9.206;2022-09-25T10:25:50;12.80;;;9.80;;
63038;SDS011;49125;48.812;9.206;2022-09-25T10:28:25;11.05;;;10.13;;
63038;SDS011;49125;48.812;9.206;2022-09-25T10:30:50;11.65;;;10.05;;
63038;SDS011;49125;48.812;9.206;2022-09-25T10:33:23;11.77;;;10.50;;
63038;SDS011;49125;48.812;9.206;2022-09-25T10:35:51;11.50;;;10.45;;
63038;SDS011;49125;48.812;9.206;2022-09-25T10:41:07;12.98;;;10.30;;
63038;SDS011;49125;48.812;9.206;2022-09-25T10:43:55;12.60;;;11.30;;
63038;SDS011;49125;48.812;9.206;2022-09-25T10:46:33;12.63;;;11.38;;
63038;SDS011;49125;48.812;9.206;2022-09-25T10:49:21;12.32;;;11.13;;
63038;SDS011;49125;48.812;9.206;2022-09-25T10:52:09;12.90;;;10.75;;
63038;SDS011;49125;48.812;9.206;2022-09-25T10:54:36;11.77;;;10.55;;
63038;SDS011;49125;48.812;9.206;2022-09-25T10:57:12;14.07;;;12.77;;
63038;SDS011;49125;48.812;9.206;2022-09-25T10:59:45;15.23;;;13.57;;
63038;SDS011;49125;48.812;9.206;2022-09-25T11:02:23;16.98;;;15.20;;
63038;SDS011;49125;48.812;9.206;2022-09-25T11:05:06;20.85;;;14.98;;
63038;SDS011;49125;48.812;9.206;2022-09-25T11:07:44;16.42;;;14.93;;
63038;SDS011;49125;48.812;9.206;2022-09-25T11:10:24;16.80;;;15.25;;
63038;SDS011;49125;48.812;9.206;2022-09-25T11:12:56;19.30;;;17.40;;
63038;SDS011;49125;48.812;9.206;2022-09-25T11:15:23;20.15;;;17.75;;
63038;SDS011;49125;48.812;9.206;2022-09-25T11:17:52;20.38;;;18.35;;
63038;SDS011;49125;48.812;9.206;2022-09-25T11:28:45;20.80;;;18.60;;
63038;SDS011;49125;48.812;9.206;2022-09-25T11:37:20;20.42;;;18.33;;
63038;SDS011;49125;48.812;9.206;2022-09-25T11:42:57;20.80;;;18.73;;
63038;SDS011;49125;48.812;9.206;2022-09-25T11:45:30;21.75;;;18.38;;
63038;SDS011;49125;48.812;9.206;2022-09-25T11:48:06;21.73;;;19.52;;
63038;SDS011;49125;48.812;9.206;2022-09-25T11:50:55;20.23;;;18.25;;
63038;SDS011;49125;48.812;9.206;2022-09-25T11:53:43;20.05;;;18.05;;
63038;SDS011;49125;48.812;9.206;2022-09-25T11:56:38;18.65;;;16.70;;
63038;SDS011;49125;48.812;9.206;2022-09-25T11:59:16;19.60;;;17.73;;
63038;SDS011;49125;48.812;9.206;2022-09-25T12:04:44;19.98;;;17.92;;
63038;SDS011;49125;48.812;9.206;2022-09-25T12:10:18;18.38;;;16.58;;
63038;SDS011;49125;48.812;9.206;2022-09-25T12:16:15;18.25;;;16.42;;
63038;SDS011;49125;48.812;9.206;2022-09-25T12:21:46;17.23;;;15.57;;
63038;SDS011;49125;48.812;9.206;2022-09-25T12:30:02;15.95;;;14.55;;
63038;SDS011;49125;48.812;9.206;2022-09-25T12:32:46;16.70;;;14.90;;
63038;SDS011;49125;48.812;9.206;2022-09-25T12:35:34;16.42;;;14.63;;
63038;SDS011;49125;48.812;9.206;2022-09-25T12:38:23;17.15;;;15.35;;
63038;SDS011;49125;48.812;9.206;2022-09-25T12:41:02;15.73;;;14.32;;
63038;SDS011;49125;48.812;9.206;2022-09-25T12:46:33;16.63;;;15.02;;
63038;SDS011;49125;48.812;9.206;2022-09-25T12:49:11;15.20;;;13.82;;
63038;SDS011;49125;48.812;9.206;2022-09-25T12:54:23;13.88;;;12.55;;
63038;SDS011;49125;48.812;9.206;2022-09-25T12:56:57;13.82;;;12.48;;
63038;SDS011;49125;48.812;9.206;2022-09-25T13:02:03;10.98;;;9.98;;
63038;SDS011;49125;48.812;9.206;2022-09-25T13:07:14;11.00;;;10.10;;
63038;SDS011;49125;48.812;9.206;2022-09-25T13:10:00;9.65;;;8.80;;
63038;SDS011;49125;48.812;9.206;2022-09-25T13:12:34;10.07;;;9.18;;
63038;SDS011;49125;48.812;9.206;2022-09-25T13:15:03;9.57;;;8.77;;
63038;SDS011;49125;48.812;9.206;2022-09-25T13:17:31;9.10;;;8.20;;
63038;SDS011;49125;48.812;9.206;2022-09-25T13:22:50;7.95;;;7.25;;
63038;SDS011;49125;48.812;9.206;2022-09-25T13:25:20;9.77;;;8.88;;
63038;SDS011;49125;48.812;9.206;2022-09-25T13:27:47;10.75;;;9.85;;
63038;SDS011;49125;48.812;9.206;2022-09-25T13:32:49;9.98;;;8.98;;
63038;SDS011;49125;48.812;9.206;2022-09-25T13:35:17;9.32;;;8.43;;
63038;SDS011;49125;48.812;9.206;2022-09-25T13:37:44;9.15;;;8.35;;
63038;SDS011;49125;48.812;9.206;2022-09-25T13:40:15;9.52;;;8.30;;
63038;SDS011;49125;48.812;9.206;2022-09-25T13:48:47;9.40;;;8.50;;
63038;SDS011;49125;48.812;9.206;2022-09-25T13:53:48;10.85;;;9.73;;
63038;SDS011;49125;48.812;9.206;2022-09-25T13:56:48;9.55;;;8.75;;
63038;SDS011;49125;48.812;9.206;2022-09-25T14:01:43;10.23;;;9.20;;
63038;SDS011;49125;48.812;9.206;2022-09-25T14:06:42;9.90;;;8.70;;
63038;SDS011;49125;48.812;9.206;2022-09-25T14:09:14;9.50;;;8.70;;
63038;SDS011;49125;48.812;9.206;2022-09-25T14:11:58;8.35;;;7.65;;
63038;SDS011;49125;48.812;9.206;2022-09-25T14:14:29;9.85;;;8.65;;
63038;SDS011;49125;48.812;9.206;2022-09-25T14:17:16;8.93;;;8.02;;
63038;SDS011;49125;48.812;9.206;2022-09-25T14:19:44;8.15;;;7.35;;
63038;SDS011;49125;48.812;9.206;2022-09-25T14:25:22;8.93;;;7.85;;
63038;SDS011;49125;48.812;9.206;2022-09-25T14:27:58;7.70;;;6.97;;
63038;SDS011;49125;48.812;9.206;2022-09-25T14:30:25;7.00;;;6.30;;
63038;SDS011;49125;48.812;9.206;2022-09-25T14:36:01;6.88;;;6.20;;
63038;SDS011;49125;48.812;9.206;2022-09-25T14:38:40;9.88;;;5.53;;
63038;SDS011;49125;48.812;9.206;2022-09-25T14:41:25;6.97;;;6.28;;
63038;SDS011;49125;48.812;9.206;2022-09-25T14:44:26;6.72;;;6.03;;
63038;SDS011;49125;48.812;9.206;2022-09-25T14:47:19;6.13;;;4.97;;
63038;SDS011;49125;48.812;9.206;2022-09-25T14:49:47;6.55;;;5.50;;
63038;SDS011;49125;48.812;9.206;2022-09-25T14:52:16;6.55;;;5.80;;
63038;SDS011;49125;48.812;9.206;2022-09-25T14:54:49;6.30;;;5.72;;
63038;SDS011;49125;48.812;9.206;2022-09-25T14:57:19;6.50;;;6.00;;
63038;SDS011;49125;48.812;9.206;2022-09-25T14:59:52;6.80;;;6.10;;
63038;SDS011;49125;48.812;9.206;2022-09-25T15:02:29;6.03;;;5.55;;
63038;SDS011;49125;48.812;9.206;2022-09-25T15:07:51;7.40;;;6.20;;
63038;SDS011;49125;48.812;9.206;2022-09-25T15:12:52;7.13;;;6.43;;
63038;SDS011;49125;48.812;9.206;2022-09-25T15:15:19;6.75;;;6.00;;
63038;SDS011;49125;48.812;9.206;2022-09-25T15:17:49;6.75;;;6.25;;
63038;SDS011;49125;48.812;9.206;2022-09-25T15:20:19;8.63;;;6.32;;
63038;SDS011;49125;48.812;9.206;2022-09-25T15:22:48;6.57;;;5.97;;
63038;SDS011;49125;48.812;9.206;2022-09-25T15:25:22;6.03;;;5.53;;
63038;SDS011;49125;48.812;9.206;2022-09-25T15:27:51;6.35;;;5.50;;
63038;SDS011;49125;48.812;9.206;2022-09-25T15:30:17;5.47;;;4.97;;
63038;SDS011;49125;48.812;9.206;2022-09-25T15:32:45;5.43;;;4.93;;
63038;SDS011;49125;48.812;9.206;2022-09-25T15:35:18;5.50;;;4.68;;
63038;SDS011;49125;48.812;9.206;2022-09-25T15:37:47;5.40;;;5.00;;
63038;SDS011;49125;48.812;9.206;2022-09-25T15:40:18;5.43;;;5.03;;
63038;SDS011;49125;48.812;9.206;2022-09-25T15:42:49;5.10;;;4.53;;
63038;SDS011;49125;48.812;9.206;2022-09-25T15:48:08;4.22;;;3.90;;
63038;SDS011;49125;48.812;9.206;2022-09-25T15:50:34;3.97;;;3.67;;
63038;SDS011;49125;48.812;9.206;2022-09-25T15:53:00;4.10;;;3.80;;
63038;SDS011;49125;48.812;9.206;2022-09-25T15:55:27;3.60;;;3.30;;
63038;SDS011;49125;48.812;9.206;2022-09-25T15:57:55;3.47;;;3.00;;
63038;SDS011;49125;48.812;9.206;2022-09-25T16:00:35;2.90;;;2.70;;
63038;SDS011;49125;48.812;9.206;2022-09-25T16:03:21;2.80;;;2.60;;
63038;SDS011;49125;48.812;9.206;2022-09-25T16:06:14;3.63;;;2.17;;
63038;SDS011;49125;48.812;9.206;2022-09-25T16:08:41;2.53;;;2.30;;
63038;SDS011;49125;48.812;9.206;2022-09-25T16:13:33;2.72;;;1.67;;
63038;SDS011;49125;48.812;9.206;2022-09-25T16:16:03;1.95;;;1.75;;
63038;SDS011;49125;48.812;9.206;2022-09-25T16:18:38;1.90;;;1.58;;
63038;SDS011;49125;48.812;9.206;2022-09-25T16:23:35;1.75;;;1.65;;
63038;SDS011;49125;48.812;9.206;2022-09-25T16:26:02;1.77;;;1.52;;
63038;SDS011;49125;48.812;9.206;2022-09-25T16:28:30;1.90;;;1.80;;
63038;SDS011;49125;48.812;9.206;2022-09-25T16:30:59;1.77;;;1.67;;
63038;SDS011;49125;48.812;9.206;2022-09-25T16:36:10;4.13;;;2.03;;
63038;SDS011;49125;48.812;9.206;2022-09-25T16:38:42;2.90;;;2.65;;
63038;SDS011;49125;48.812;9.206;2022-09-25T16:41:26;2.88;;;2.65;;
63038;SDS011;49125;48.812;9.206;2022-09-25T16:46:45;3.65;;;2.88;;
63038;SDS011;49125;48.812;9.206;2022-09-25T16:49:17;2.88;;;2.67;;
63038;SDS011;49125;48.812;9.206;2022-09-25T16:51:45;3.90;;;3.50;;
63038;SDS011;49125;48.812;9.206;2022-09-25T16:54:13;6.43;;;4.18;;
63038;SDS011;49125;48.812;9.206;2022-09-25T16:56:41;6.68;;;5.45;;
63038;SDS011;49125;48.812;9.206;2022-09-25T16:59:28;5.60;;;5.10;;
63038;SDS011;49125;48.812;9.206;2022-09-25T17:01:58;5.07;;;4.60;;
63038;SDS011;49125;48.812;9.206;2022-09-25T17:04:26;4.50;;;4.10;;
63038;SDS011;49125;48.812;9.206;2022-09-25T17:06:54;4.05;;;3.65;;
63038;SDS011;49125;48.812;9.206;2022-09-25T17:09:24;4.13;;;3.83;;
63038;SDS011;49125;48.812;9.206;2022-09-25T17:11:52;4.07;;;3.35;;
63038;SDS011;49125;48.812;9.206;2022-09-25T17:14:29;5.68;;;3.60;;
63038;SDS011;49125;48.812;9.206;2022-09-25T17:16:55;4.30;;;3.90;;